Time;durP1;ratioP1;P1;durP2;ratioP2;P2;SDS_P1;SDS_P2;PMS_P1;PMS_P2;Temp;Humidity;BMP_temperature;BMP_pressure;BME280_temperature;BME280_humidity;BME280_pressure;Samples;Min_cycle;Max_cycle;Signal;HPM_P1;HPM_P2
2023/12/05 00:00:05;;;;;;;7.03;6.00;;;5.60;78.50;;;;;;5030072;28;20481;-76
2023/12/05 00:02:38;;;;;;;6.90;5.88;;;5.60;78.50;;;;;;5026681;28;20083;-74
2023/12/05 00:05:04;;;;;;;6.82;5.88;;;5.60;78.50;;;;;;5029420;28;20041;-75
2023/12/05 00:07:30;;;;;;;6.72;5.90;;;5.60;78.50;;;;;;5028424;28;20037;-76
2023/12/05 00:09:56;;;;;;;6.78;5.50;;;5.60;78.50;;;;;;5025310;28;20045;-74
2023/12/05 00:12:21;;;;;;;6.80;5.70;;;5.60;78.50;;;;;;5029872;28;20129;-74
2023/12/05 00:14:47;;;;;;;6.75;5.53;;;5.70;78.50;;;;;;5022466;28;20061;-74
2023/12/05 00:17:13;;;;;;;7.50;6.35;;;5.70;78.50;;;;;;5033216;28;20393;-75
2023/12/05 00:19:39;;;;;;;7.32;6.03;;;5.70;78.50;;;;;;5012950;28;20026;-75
2023/12/05 00:22:05;;;;;;;7.30;5.88;;;5.70;78.50;;;;;;5034354;28;20044;-74
2023/12/05 00:24:30;;;;;;;7.72;6.22;;;5.70;78.50;;;;;;5059062;28;20556;-74
2023/12/05 00:26:56;;;;;;;8.68;7.00;;;5.70;79.20;;;;;;5013122;28;20441;-74
2023/12/05 00:29:22;;;;;;;7.38;6.00;;;5.70;78.50;;;;;;5046097;28;20037;-74
2023/12/05 00:31:48;;;;;;;7.28;6.13;;;5.70;78.50;;;;;;5013930;28;20079;-74
2023/12/05 00:34:13;;;;;;;6.50;5.50;;;5.70;78.50;;;;;;5029563;28;20033;-74
2023/12/05 00:36:39;;;;;;;7.47;6.35;;;5.70;78.50;;;;;;5010723;28;20470;-74
2023/12/05 00:39:05;;;;;;;7.97;6.32;;;5.70;78.50;;;;;;5015294;28;20088;-74
2023/12/05 00:41:30;;;;;;;6.95;6.05;;;5.70;78.50;;;;;;5025862;28;20548;-75
2023/12/05 00:43:56;;;;;;;7.05;5.93;;;5.70;78.50;;;;;;5027036;28;20034;-74
2023/12/05 00:46:22;;;;;;;7.55;5.80;;;5.70;78.60;;;;;;5028119;28;20036;-74
2023/12/05 00:48:48;;;;;;;7.38;6.05;;;5.80;78.60;;;;;;5046397;28;20120;-75
2023/12/05 00:51:14;;;;;;;7.13;6.00;;;5.70;78.50;;;;;;5007736;28;20457;-74
2023/12/05 00:53:40;;;;;;;6.95;5.88;;;5.70;78.60;;;;;;5029624;28;20034;-74
2023/12/05 00:56:11;;;;;;;7.80;6.22;;;5.70;78.60;;;;;;5015580;28;20521;-74
2023/12/05 00:58:37;;;;;;;6.72;5.93;;;5.70;78.60;;;;;;5031937;28;20124;-74
2023/12/05 01:01:03;;;;;;;7.57;6.30;;;5.80;78.60;;;;;;5027901;28;20602;-74
2023/12/05 01:03:29;;;;;;;7.90;6.57;;;5.70;78.50;;;;;;5031581;28;20228;-74
2023/12/05 01:05:54;;;;;;;6.75;5.90;;;5.80;78.60;;;;;;5033878;28;20869;-74
2023/12/05 01:08:20;;;;;;;7.10;6.38;;;5.80;78.60;;;;;;5029218;28;20064;-74
2023/12/05 01:10:46;;;;;;;8.52;7.00;;;5.80;78.60;;;;;;5026212;28;20045;-74
2023/12/05 01:13:12;;;;;;;7.28;5.97;;;5.80;78.60;;;;;;5023953;28;20029;-74
2023/12/05 01:15:38;;;;;;;7.00;6.07;;;5.80;78.60;;;;;;5029279;28;20030;-75
2023/12/05 01:18:04;;;;;;;7.70;5.75;;;5.80;78.60;;;;;;5015877;28;20421;-74
2023/12/05 01:20:30;;;;;;;7.60;6.20;;;5.80;78.60;;;;;;5013838;28;20377;-74
2023/12/05 01:22:56;;;;;;;7.25;6.18;;;5.80;78.60;;;;;;5007764;28;20478;-74
2023/12/05 01:25:21;;;;;;;7.57;6.75;;;5.80;78.60;;;;;;5026724;28;20030;-75
2023/12/05 01:27:47;;;;;;;7.88;6.72;;;5.80;78.60;;;;;;5011780;28;20038;-74
2023/12/05 01:30:13;;;;;;;7.85;6.72;;;5.80;78.60;;;;;;5028474;28;20037;-75
2023/12/05 01:32:39;;;;;;;8.90;7.20;;;5.80;78.60;;;;;;5027426;28;20469;-74
2023/12/05 01:35:05;;;;;;;8.07;6.47;;;5.80;79.20;;;;;;5030921;28;20072;-74
2023/12/05 01:37:31;;;;;;;8.18;6.53;;;5.80;78.60;;;;;;5026582;28;20033;-74
2023/12/05 01:39:57;;;;;;;8.00;6.75;;;5.80;78.60;;;;;;5019618;28;20037;-74
2023/12/05 01:42:22;;;;;;;7.68;6.68;;;5.80;78.60;;;;;;5011433;28;20449;-74
2023/12/05 01:44:48;;;;;;;7.85;6.75;;;5.80;78.60;;;;;;5014003;28;20062;-74
2023/12/05 01:47:16;;;;;;;8.23;6.90;;;5.80;78.60;;;;;;5019896;28;20030;-75
2023/12/05 01:49:43;;;;;;;7.10;6.15;;;5.80;78.60;;;;;;5026315;28;21839;-74
2023/12/05 01:52:10;;;;;;;7.68;6.15;;;5.90;78.70;;;;;;5012788;28;20467;-74
2023/12/05 01:54:37;;;;;;;7.28;6.50;;;5.90;78.60;;;;;;5030087;28;20017;-74
2023/12/05 01:57:05;;;;;;;8.27;6.72;;;5.90;78.70;;;;;;5025561;28;20414;-74
2023/12/05 01:59:31;;;;;;;8.05;6.95;;;5.90;78.60;;;;;;5024418;28;20113;-75
2023/12/05 02:01:57;;;;;;;7.53;6.13;;;5.90;78.60;;;;;;5027341;28;20037;-74
2023/12/05 02:04:23;;;;;;;7.60;6.20;;;5.90;78.60;;;;;;5030140;28;20029;-74
2023/12/05 02:06:50;;;;;;;8.00;6.70;;;5.90;78.60;;;;;;5026488;28;20064;-75
2023/12/05 02:09:16;;;;;;;8.77;7.15;;;5.90;78.70;;;;;;5044214;28;21534;-74
2023/12/05 02:11:43;;;;;;;7.93;6.57;;;5.90;78.60;;;;;;5030490;28;20445;-74
2023/12/05 02:14:09;;;;;;;7.30;6.22;;;5.90;78.70;;;;;;5032235;28;20030;-75
2023/12/05 02:16:38;;;;;;;7.90;6.53;;;5.90;79.30;;;;;;5024339;28;20034;-74
2023/12/05 02:19:32;;;;;;;9.02;6.90;;;5.90;78.70;;;;;;5025885;28;20489;-74
2023/12/05 02:22:03;;;;;;;7.95;6.38;;;5.90;78.80;;;;;;5028528;28;20490;-74
2023/12/05 02:24:48;;;;;;;7.40;6.32;;;5.90;78.70;;;;;;5024238;28;20025;-74
2023/12/05 02:27:37;;;;;;;8.02;6.30;;;5.90;78.70;;;;;;5052811;28;20038;-74
2023/12/05 02:30:03;;;;;;;7.47;6.20;;;5.90;78.70;;;;;;5026166;28;20026;-75
2023/12/05 02:32:29;;;;;;;8.25;6.93;;;5.90;78.60;;;;;;5027188;28;20053;-74
2023/12/05 02:34:55;;;;;;;7.05;6.13;;;5.90;78.70;;;;;;5026121;28;20065;-75
2023/12/05 02:37:38;;;;;;;8.57;6.93;;;5.90;78.70;;;;;;5042350;28;20046;-75
2023/12/05 02:40:32;;;;;;;8.60;7.00;;;5.90;78.70;;;;;;5026020;28;20065;-74
2023/12/05 02:43:01;;;;;;;8.10;6.60;;;6.00;78.80;;;;;;5019751;28;20172;-74
2023/12/05 02:45:30;;;;;;;7.35;6.20;;;5.90;78.60;;;;;;5026763;28;20075;-74
2023/12/05 02:47:57;;;;;;;9.02;7.45;;;6.00;78.70;;;;;;5026752;28;20396;-74
2023/12/05 02:50:23;;;;;;;7.45;6.22;;;5.90;78.70;;;;;;5025553;28;20500;-75
2023/12/05 02:52:49;;;;;;;7.90;6.90;;;5.90;78.70;;;;;;5010239;28;20030;-74
2023/12/05 02:55:15;;;;;;;8.35;6.82;;;5.90;78.70;;;;;;5014001;28;20052;-75
2023/12/05 02:57:41;;;;;;;8.00;6.63;;;5.90;78.70;;;;;;5022565;28;20479;-75
2023/12/05 03:00:08;;;;;;;8.10;6.57;;;5.90;78.70;;;;;;5028748;28;20037;-74
2023/12/05 03:02:34;;;;;;;9.10;6.88;;;5.90;78.70;;;;;;5019100;28;20025;-75
2023/12/05 03:04:59;;;;;;;8.30;7.07;;;5.90;78.70;;;;;;5029330;28;20029;-74
2023/12/05 03:07:25;;;;;;;7.25;6.25;;;5.90;78.70;;;;;;5010355;28;20065;-74
2023/12/05 03:09:51;;;;;;;8.52;6.65;;;5.90;78.70;;;;;;5028925;28;20461;-74
2023/12/05 03:12:17;;;;;;;7.72;6.50;;;6.00;78.70;;;;;;5009072;28;20037;-75
2023/12/05 03:14:42;;;;;;;8.60;7.03;;;6.00;78.70;;;;;;5022838;28;20030;-74
2023/12/05 03:17:08;;;;;;;8.32;6.68;;;6.00;78.70;;;;;;5011238;28;20129;-74
2023/12/05 03:19:34;;;;;;;8.10;6.55;;;6.00;78.70;;;;;;5024163;28;20021;-75
2023/12/05 03:21:59;;;;;;;7.60;6.45;;;5.90;78.70;;;;;;5023111;28;20044;-74
2023/12/05 03:24:25;;;;;;;7.97;6.40;;;6.00;78.80;;;;;;5024882;28;20505;-74
2023/12/05 03:26:51;;;;;;;8.00;6.63;;;6.00;78.70;;;;;;5019912;28;20037;-75
2023/12/05 03:29:17;;;;;;;8.18;6.95;;;6.00;78.80;;;;;;5013233;28;20094;-75
2023/12/05 03:31:42;;;;;;;8.73;7.05;;;6.00;78.70;;;;;;5027510;28;20044;-75
2023/12/05 03:34:09;;;;;;;7.75;6.63;;;6.00;78.70;;;;;;5023200;28;20040;-75
2023/12/05 03:36:35;;;;;;;7.68;6.20;;;6.00;78.80;;;;;;5024368;28;20050;-75
2023/12/05 03:39:00;;;;;;;7.80;6.35;;;6.00;78.80;;;;;;5027953;28;20463;-75
2023/12/05 03:41:26;;;;;;;7.53;6.32;;;6.00;78.70;;;;;;5028887;28;20041;-75
2023/12/05 03:43:52;;;;;;;9.43;6.68;;;6.00;78.80;;;;;;5025739;28;20088;-75
2023/12/05 03:46:17;;;;;;;8.20;6.85;;;6.00;78.70;;;;;;5010475;28;20386;-74
2023/12/05 03:48:43;;;;;;;8.30;6.93;;;6.00;78.70;;;;;;5021110;28;20040;-74
2023/12/05 03:51:09;;;;;;;8.48;6.93;;;6.00;78.70;;;;;;5028536;28;20438;-74
2023/12/05 03:53:35;;;;;;;8.88;7.18;;;6.00;78.80;;;;;;5025373;28;20528;-74
2023/12/05 03:56:00;;;;;;;8.77;7.18;;;6.00;78.80;;;;;;5028711;28;20068;-74
2023/12/05 03:58:26;;;;;;;8.88;6.68;;;6.00;78.80;;;;;;5027596;28;20049;-75
2023/12/05 04:00:52;;;;;;;8.23;6.82;;;6.00;78.70;;;;;;5010160;28;20021;-74
2023/12/05 04:03:19;;;;;;;8.18;6.40;;;6.00;78.70;;;;;;5027186;28;20026;-74
2023/12/05 04:05:45;;;;;;;8.60;6.65;;;6.00;78.70;;;;;;5028971;28;20037;-74
2023/12/05 04:08:10;;;;;;;7.88;6.38;;;6.00;78.70;;;;;;5022323;28;20060;-74
2023/12/05 04:10:36;;;;;;;9.13;6.78;;;6.00;78.70;;;;;;5024024;28;20355;-75
2023/12/05 04:13:02;;;;;;;8.43;7.07;;;6.00;78.70;;;;;;5027295;28;20026;-75
2023/12/05 04:15:28;;;;;;;8.27;7.03;;;6.00;78.70;;;;;;5022140;28;20034;-75
2023/12/05 04:17:53;;;;;;;9.00;6.85;;;6.00;78.70;;;;;;5026245;28;20124;-74
2023/12/05 04:20:19;;;;;;;8.63;6.80;;;6.00;78.80;;;;;;5021314;28;20109;-74
2023/12/05 04:22:45;;;;;;;7.80;6.55;;;6.00;78.70;;;;;;5022237;28;20029;-75
2023/12/05 04:25:11;;;;;;;8.43;6.82;;;6.00;78.80;;;;;;5029358;28;20390;-75
2023/12/05 04:27:37;;;;;;;8.63;6.88;;;6.00;78.70;;;;;;5029062;28;20038;-74
2023/12/05 04:30:03;;;;;;;8.15;6.97;;;6.00;78.80;;;;;;5035602;28;20433;-75
2023/12/05 04:32:29;;;;;;;8.07;6.78;;;6.00;78.80;;;;;;5031661;28;20038;-75
2023/12/05 04:34:55;;;;;;;7.18;6.10;;;6.00;78.80;;;;;;5025729;28;20509;-75
2023/12/05 04:37:21;;;;;;;8.23;6.68;;;6.00;78.80;;;;;;5008430;28;20062;-75
2023/12/05 04:39:47;;;;;;;7.97;6.10;;;6.00;78.80;;;;;;5023163;28;20026;-74
2023/12/05 04:42:12;;;;;;;7.82;6.43;;;6.00;78.80;;;;;;5057787;28;20029;-75
2023/12/05 04:44:38;;;;;;;8.55;7.35;;;6.00;78.80;;;;;;5024376;28;20021;-75
2023/12/05 04:47:04;;;;;;;7.20;6.38;;;6.00;78.80;;;;;;5030946;28;20071;-75
2023/12/05 04:49:30;;;;;;;8.05;6.35;;;6.00;78.80;;;;;;5028680;28;20029;-75
2023/12/05 04:51:56;;;;;;;9.00;7.05;;;6.00;78.80;;;;;;5028103;28;20554;-75
2023/12/05 04:54:22;;;;;;;8.27;6.40;;;6.00;78.80;;;;;;5033050;28;20029;-74
2023/12/05 04:56:47;;;;;;;8.52;7.15;;;6.00;78.80;;;;;;5005655;28;20406;-75
2023/12/05 04:59:13;;;;;;;8.57;6.43;;;6.00;78.80;;;;;;5032634;28;20038;-75
2023/12/05 05:01:39;;;;;;;8.60;6.72;;;6.00;78.80;;;;;;5038077;28;20396;-74
2023/12/05 05:04:05;;;;;;;8.43;7.05;;;6.00;78.80;;;;;;5022437;28;20037;-74
2023/12/05 05:06:30;;;;;;;8.77;7.55;;;6.00;78.90;;;;;;5029072;28;20064;-76
2023/12/05 05:08:56;;;;;;;9.05;7.00;;;6.00;78.90;;;;;;5022167;28;20447;-75
2023/12/05 05:11:23;;;;;;;8.30;6.88;;;6.00;78.80;;;;;;5025218;28;20040;-75
2023/12/05 05:13:49;;;;;;;8.23;6.82;;;6.00;78.80;;;;;;5032396;28;20103;-74
2023/12/05 05:16:14;;;;;;;8.27;6.45;;;6.00;78.80;;;;;;5030349;28;20029;-74
2023/12/05 05:18:40;;;;;;;8.90;7.18;;;6.00;78.90;;;;;;5027239;28;20037;-74
2023/12/05 05:21:06;;;;;;;9.13;7.03;;;6.00;78.80;;;;;;5020552;28;20034;-74
2023/12/05 05:23:33;;;;;;;8.23;6.57;;;6.00;78.90;;;;;;5008825;28;20030;-75
2023/12/05 05:25:59;;;;;;;8.40;6.63;;;6.00;78.80;;;;;;5024312;28;20030;-75
2023/12/05 05:28:25;;;;;;;8.73;7.10;;;6.00;78.90;;;;;;5013802;28;20474;-75
2023/12/05 05:30:54;;;;;;;8.48;6.60;;;6.00;78.80;;;;;;5026954;28;20026;-75
2023/12/05 05:33:21;;;;;;;8.70;7.05;;;6.00;78.90;;;;;;5025004;28;20482;-75
2023/12/05 05:35:47;;;;;;;8.38;6.95;;;6.00;78.90;;;;;;5030239;28;20055;-76
2023/12/05 05:38:13;;;;;;;8.43;6.45;;;6.00;78.90;;;;;;5029646;28;20397;-75
2023/12/05 05:40:40;;;;;;;8.43;6.55;;;6.00;78.90;;;;;;5023662;28;20052;-75
2023/12/05 05:43:06;;;;;;;8.63;7.07;;;6.00;78.90;;;;;;5029254;28;20474;-75
2023/12/05 05:45:31;;;;;;;9.50;7.30;;;6.00;78.90;;;;;;5015324;28;20037;-76
2023/12/05 05:47:57;;;;;;;7.88;6.43;;;6.00;78.90;;;;;;5026244;28;20034;-75
2023/12/05 05:50:23;;;;;;;7.68;6.38;;;6.00;78.90;;;;;;5025895;28;20095;-75
2023/12/05 05:52:49;;;;;;;8.82;7.28;;;5.90;78.80;;;;;;5030161;28;20038;-74
2023/12/05 05:55:15;;;;;;;8.50;6.72;;;6.00;78.90;;;;;;5054447;28;20032;-75
2023/12/05 05:57:40;;;;;;;8.63;6.72;;;6.00;78.90;;;;;;5036363;28;20528;-74
2023/12/05 06:00:08;;;;;;;7.78;6.45;;;6.00;78.90;;;;;;5022344;28;20038;-75
2023/12/05 06:02:34;;;;;;;9.10;7.15;;;6.00;78.90;;;;;;5023415;28;20032;-75
2023/12/05 06:04:59;;;;;;;8.32;6.65;;;6.00;78.90;;;;;;5024939;28;20037;-74
2023/12/05 06:07:25;;;;;;;8.73;7.05;;;6.00;78.90;;;;;;5032363;28;20135;-75
2023/12/05 06:09:51;;;;;;;8.68;6.88;;;6.00;78.90;;;;;;5016309;28;20389;-74
2023/12/05 06:12:17;;;;;;;9.40;7.10;;;6.00;78.90;;;;;;5031279;28;20381;-74
2023/12/05 06:14:43;;;;;;;7.90;6.30;;;6.00;78.90;;;;;;5028381;28;20029;-75
2023/12/05 06:17:09;;;;;;;8.73;7.13;;;6.00;78.90;;;;;;5014701;28;20167;-75
2023/12/05 06:19:35;;;;;;;8.15;6.65;;;6.00;78.90;;;;;;5014086;28;20120;-74
2023/12/05 06:22:00;;;;;;;8.63;7.03;;;6.00;78.90;;;;;;5024779;28;20040;-74
2023/12/05 06:24:27;;;;;;;8.50;6.68;;;6.00;78.90;;;;;;5029810;28;20318;-74
2023/12/05 06:26:52;;;;;;;8.75;6.45;;;6.00;78.90;;;;;;5023033;28;20447;-76
2023/12/05 06:29:18;;;;;;;8.88;6.97;;;6.00;78.90;;;;;;5029438;28;20390;-75
2023/12/05 06:31:44;;;;;;;7.95;6.47;;;6.00;79.00;;;;;;5030462;28;20037;-76
2023/12/05 06:34:10;;;;;;;10.23;7.65;;;6.00;78.90;;;;;;5050440;28;20508;-76
2023/12/05 06:36:36;;;;;;;7.60;6.00;;;6.00;78.90;;;;;;5011864;28;20451;-75
2023/12/05 06:39:03;;;;;;;7.55;6.18;;;6.00;78.90;;;;;;5009023;28;20034;-76
2023/12/05 06:41:28;;;;;;;8.60;6.40;;;6.00;78.90;;;;;;5016398;28;20482;-76
2023/12/05 06:43:54;;;;;;;8.52;6.72;;;6.00;78.80;;;;;;5042899;28;20037;-76
2023/12/05 06:46:20;;;;;;;8.35;6.70;;;6.00;78.90;;;;;;5026304;28;20037;-75
2023/12/05 06:48:48;;;;;;;8.23;6.53;;;6.00;78.90;;;;;;5011714;28;20048;-75
2023/12/05 06:51:18;;;;;;;8.77;6.75;;;6.00;78.90;;;;;;5021606;28;20030;-75
2023/12/05 06:53:46;;;;;;;8.85;6.63;;;6.00;78.90;;;;;;5009562;28;20039;-76
2023/12/05 06:56:14;;;;;;;8.43;6.78;;;6.00;78.90;;;;;;5004590;28;20061;-75
2023/12/05 06:58:39;;;;;;;8.10;6.32;;;6.00;78.90;;;;;;5031017;28;20038;-75
2023/12/05 07:01:06;;;;;;;7.88;6.40;;;6.00;78.90;;;;;;5006717;28;20030;-75
2023/12/05 07:03:32;;;;;;;8.55;6.70;;;6.00;78.90;;;;;;5025305;28;20121;-76
2023/12/05 07:05:57;;;;;;;8.65;6.75;;;6.00;78.90;;;;;;5023247;28;20104;-76
2023/12/05 07:08:23;;;;;;;8.35;6.32;;;6.00;78.90;;;;;;5028588;28;20450;-76
2023/12/05 07:10:49;;;;;;;8.55;6.53;;;6.00;78.90;;;;;;5028972;28;20036;-75
2023/12/05 07:13:15;;;;;;;7.88;6.60;;;6.00;79.00;;;;;;5024719;28;20389;-77
2023/12/05 07:15:41;;;;;;;9.18;6.75;;;6.00;79.00;;;;;;5018114;28;20038;-77
2023/12/05 07:18:08;;;;;;;8.15;6.40;;;6.00;78.90;;;;;;5020013;28;20021;-76
2023/12/05 07:20:34;;;;;;;8.23;6.45;;;6.00;78.90;;;;;;5028512;28;20381;-78
2023/12/05 07:23:00;;;;;;;8.25;6.32;;;6.00;78.90;;;;;;5029755;28;20474;-76
2023/12/05 07:25:26;;;;;;;8.27;6.28;;;6.00;78.90;;;;;;5013679;28;20037;-76
2023/12/05 07:27:51;;;;;;;7.88;6.45;;;6.00;78.90;;;;;;5013997;28;20453;-75
2023/12/05 07:30:17;;;;;;;7.72;6.07;;;6.00;78.90;;;;;;5026414;28;20368;-75
2023/12/05 07:32:43;;;;;;;6.85;5.45;;;6.00;78.90;;;;;;5011517;28;20036;-75
2023/12/05 07:35:09;;;;;;;8.55;6.78;;;6.00;78.90;;;;;;5031103;28;20029;-75
2023/12/05 07:37:34;;;;;;;9.05;6.85;;;6.00;78.90;;;;;;5029605;28;20037;-75
2023/12/05 07:40:00;;;;;;;8.88;6.60;;;6.00;78.90;;;;;;5047368;28;20536;-75
2023/12/05 07:42:26;;;;;;;8.70;6.72;;;6.00;78.90;;;;;;5029223;28;20124;-76
2023/12/05 07:44:52;;;;;;;8.15;6.55;;;6.00;78.90;;;;;;5011081;28;20497;-76
2023/12/05 07:47:17;;;;;;;8.27;6.70;;;6.00;78.90;;;;;;5013841;28;20124;-76
2023/12/05 07:49:46;;;;;;;8.48;6.47;;;6.00;78.90;;;;;;5025576;28;20022;-76
2023/12/05 07:52:12;;;;;;;8.07;6.72;;;6.00;78.90;;;;;;5027815;28;20397;-74
2023/12/05 07:54:38;;;;;;;7.20;5.85;;;6.00;78.90;;;;;;5031709;28;20028;-76
2023/12/05 07:57:04;;;;;;;8.52;6.70;;;6.00;79.00;;;;;;5007204;28;20133;-76
2023/12/05 07:59:30;;;;;;;7.88;6.32;;;6.00;79.00;;;;;;5028098;28;20072;-75
2023/12/05 08:01:55;;;;;;;8.40;6.85;;;6.00;79.00;;;;;;5024013;28;20057;-75
2023/12/05 08:04:21;;;;;;;8.50;7.07;;;6.00;78.90;;;;;;5034128;28;20033;-77
2023/12/05 08:06:50;;;;;;;9.15;6.75;;;6.00;78.90;;;;;;5029958;28;20502;-75
2023/12/05 08:09:16;;;;;;;8.68;6.90;;;6.00;78.90;;;;;;5044436;28;20084;-73
2023/12/05 08:11:42;;;;;;;8.35;6.68;;;6.00;79.00;;;;;;5029622;28;20068;-76
2023/12/05 08:14:08;;;;;;;8.88;7.10;;;6.00;78.90;;;;;;5047809;28;20129;-75
2023/12/05 08:16:34;;;;;;;8.65;7.13;;;6.00;78.90;;;;;;5028429;28;20476;-76
2023/12/05 08:19:00;;;;;;;8.77;7.13;;;6.00;78.90;;;;;;5049480;28;20052;-75
2023/12/05 08:21:26;;;;;;;8.88;6.85;;;6.00;79.00;;;;;;5033808;28;20092;-75
2023/12/05 08:23:52;;;;;;;9.35;7.47;;;6.00;78.90;;;;;;5017164;28;20033;-76
2023/12/05 08:26:18;;;;;;;8.85;6.97;;;6.00;79.00;;;;;;5016848;28;20486;-76
2023/12/05 08:28:44;;;;;;;8.60;6.70;;;6.00;79.00;;;;;;5040253;28;20053;-76
2023/12/05 08:31:10;;;;;;;9.10;6.60;;;6.00;79.00;;;;;;5018007;28;20033;-76
2023/12/05 08:33:35;;;;;;;9.32;7.60;;;6.00;79.00;;;;;;5024989;28;20041;-76
2023/12/05 08:36:01;;;;;;;8.80;7.15;;;6.00;79.00;;;;;;5033732;28;20100;-75
2023/12/05 08:38:27;;;;;;;9.38;7.13;;;6.10;79.00;;;;;;5020771;28;20478;-75
2023/12/05 08:40:52;;;;;;;8.98;7.05;;;6.10;79.00;;;;;;5017844;28;20052;-74
2023/12/05 08:43:18;;;;;;;8.73;6.97;;;6.00;78.90;;;;;;5036171;28;20026;-76
2023/12/05 08:45:44;;;;;;;9.07;6.82;;;6.00;79.00;;;;;;5031328;28;20033;-76
2023/12/05 08:48:10;;;;;;;9.20;7.35;;;6.10;79.00;;;;;;5060695;28;20040;-76
2023/12/05 08:50:36;;;;;;;9.98;7.63;;;6.10;79.10;;;;;;5033731;28;20124;-76
2023/12/05 08:53:02;;;;;;;9.55;7.43;;;6.00;79.00;;;;;;5034564;28;20405;-75
2023/12/05 08:55:28;;;;;;;9.13;7.22;;;6.00;79.00;;;;;;5014694;28;20477;-75
2023/12/05 08:57:55;;;;;;;9.45;6.93;;;6.10;79.10;;;;;;5025449;28;20044;-75
2023/12/05 09:00:21;;;;;;;8.70;6.75;;;6.10;79.00;;;;;;5028577;28;20073;-75
2023/12/05 09:02:47;;;;;;;10.15;7.68;;;6.10;79.00;;;;;;5027420;28;20062;-76
2023/12/05 09:05:12;;;;;;;9.68;7.32;;;6.10;79.00;;;;;;5024402;28;20042;-76
2023/12/05 09:07:39;;;;;;;9.05;6.80;;;6.10;79.00;;;;;;5024215;28;20033;-76
2023/12/05 09:10:05;;;;;;;9.43;7.32;;;6.10;79.00;;;;;;5031197;28;20037;-76
2023/12/05 09:12:32;;;;;;;9.80;7.53;;;6.10;79.00;;;;;;5016286;28;20388;-75
2023/12/05 09:14:58;;;;;;;9.23;7.32;;;6.10;79.10;;;;;;5019125;28;20421;-75
2023/12/05 09:17:24;;;;;;;9.02;7.13;;;6.10;79.00;;;;;;5031608;28;20035;-76
2023/12/05 09:19:50;;;;;;;8.90;7.22;;;6.10;79.10;;;;;;5031166;28;20152;-76
2023/12/05 09:22:17;;;;;;;9.95;7.47;;;6.10;79.00;;;;;;5025869;28;20029;-74
2023/12/05 09:24:42;;;;;;;9.68;7.20;;;6.10;79.00;;;;;;5054219;28;20033;-76
2023/12/05 09:27:08;;;;;;;8.65;6.93;;;6.10;79.00;;;;;;5017763;28;20151;-75
2023/12/05 09:29:34;;;;;;;8.98;7.20;;;6.10;79.00;;;;;;5008008;28;20033;-75
2023/12/05 09:32:00;;;;;;;8.93;7.03;;;6.10;79.10;;;;;;5015318;28;20474;-75
2023/12/05 09:34:26;;;;;;;9.75;6.78;;;6.10;79.00;;;;;;5033559;28;20030;-76
2023/12/05 09:36:51;;;;;;;9.05;7.35;;;6.10;79.00;;;;;;5031956;28;20505;-76
2023/12/05 09:39:17;;;;;;;8.65;6.78;;;6.10;79.00;;;;;;5029545;28;20034;-75
2023/12/05 09:41:52;;;;;;;8.02;6.55;;;6.10;79.00;;;;;;5023602;28;20029;-74
2023/12/05 09:44:23;;;;;;;9.07;6.55;;;6.10;79.00;;;;;;5030402;28;20493;-75
2023/12/05 09:46:54;;;;;;;8.73;6.97;;;6.20;79.10;;;;;;5010732;28;20547;-75
2023/12/05 09:49:25;;;;;;;8.90;6.72;;;6.10;79.00;;;;;;5047196;28;20025;-75
2023/12/05 09:51:52;;;;;;;7.97;6.43;;;6.10;79.00;;;;;;5018891;28;20037;-75
2023/12/05 09:54:17;;;;;;;8.55;6.50;;;6.10;79.00;;;;;;5032911;28;20038;-74
2023/12/05 09:56:44;;;;;;;9.23;6.70;;;6.10;79.00;;;;;;5018154;28;20137;-74
2023/12/05 09:59:13;;;;;;;9.02;6.63;;;6.10;79.00;;;;;;5018749;28;20180;-75
2023/12/05 10:01:42;;;;;;;9.57;7.32;;;6.10;79.00;;;;;;5036877;28;20131;-76
2023/12/05 10:04:11;;;;;;;8.00;6.68;;;6.10;79.10;;;;;;5027517;28;20452;-75
2023/12/05 10:06:37;;;;;;;8.73;7.25;;;6.20;79.10;;;;;;5047091;28;20044;-76
2023/12/05 10:09:06;;;;;;;9.38;7.22;;;6.10;79.00;;;;;;5024360;28;20025;-76
2023/12/05 10:11:33;;;;;;;8.43;6.45;;;6.10;79.10;;;;;;5030389;28;20033;-75
2023/12/05 10:14:00;;;;;;;8.50;7.30;;;6.20;79.10;;;;;;5059400;28;20037;-75
2023/12/05 10:16:27;;;;;;;8.40;6.70;;;6.20;79.10;;;;;;5029243;28;20040;-75
2023/12/05 10:18:53;;;;;;;8.70;6.80;;;6.20;79.10;;;;;;5031783;28;20037;-76
2023/12/05 10:21:19;;;;;;;9.70;6.90;;;6.20;79.10;;;;;;5028455;28;20030;-76
2023/12/05 10:23:45;;;;;;;9.98;7.20;;;6.20;79.10;;;;;;5023940;28;20045;-75
2023/12/05 10:26:10;;;;;;;8.10;6.43;;;6.20;79.10;;;;;;5019764;28;20141;-75
2023/12/05 10:28:54;;;;;;;8.88;6.55;;;6.20;79.10;;;;;;5042012;28;20056;-75
2023/12/05 10:31:21;;;;;;;8.60;6.60;;;6.20;79.70;;;;;;5023650;28;20045;-76
2023/12/05 10:33:48;;;;;;;8.50;6.55;;;6.20;79.00;;;;;;5062762;28;20041;-75
2023/12/05 10:36:14;;;;;;;8.98;6.50;;;6.20;79.00;;;;;;5027220;28;20108;-75
2023/12/05 10:38:46;;;;;;;9.68;7.05;;;6.20;79.10;;;;;;5023887;28;20061;-73
2023/12/05 10:41:20;;;;;;;8.32;6.15;;;6.20;79.10;;;;;;5009560;28;20105;-75
2023/12/05 10:43:51;;;;;;;9.02;6.00;;;6.20;79.10;;;;;;5016371;28;20038;-75
2023/12/05 10:46:17;;;;;;;8.80;6.93;;;6.20;79.10;;;;;;5010371;28;20033;-76
2023/12/05 10:48:45;;;;;;;9.13;6.63;;;6.20;79.10;;;;;;5026238;28;20386;-74
2023/12/05 10:51:11;;;;;;;8.23;6.47;;;6.30;79.10;;;;;;5022787;28;20061;-76
2023/12/05 10:53:39;;;;;;;8.95;7.28;;;6.20;79.10;;;;;;5029405;28;20037;-75
2023/12/05 10:56:11;;;;;;;9.50;7.10;;;6.20;79.10;;;;;;5025668;28;20516;-76
2023/12/05 10:58:39;;;;;;;9.43;7.13;;;6.20;79.10;;;;;;5023611;28;20079;-76
2023/12/05 11:01:10;;;;;;;9.73;7.70;;;6.20;79.10;;;;;;5024815;28;20111;-75
2023/12/05 11:03:38;;;;;;;8.98;6.30;;;6.30;79.10;;;;;;5024201;28;20093;-74
2023/12/05 11:06:04;;;;;;;8.60;7.00;;;6.20;79.10;;;;;;5035285;28;20116;-75
2023/12/05 11:08:32;;;;;;;7.88;6.10;;;6.20;79.10;;;;;;5030364;28;20539;-75
2023/12/05 11:11:00;;;;;;;8.40;6.45;;;6.30;79.10;;;;;;5024044;28;20081;-74
2023/12/05 11:13:26;;;;;;;9.35;7.40;;;6.20;79.10;;;;;;5031920;28;20445;-77
2023/12/05 11:15:56;;;;;;;8.60;6.90;;;6.30;79.00;;;;;;5029069;28;20039;-76
2023/12/05 11:18:40;;;;;;;9.73;7.32;;;6.30;79.10;;;;;;5011128;28;20125;-76
2023/12/05 11:21:26;;;;;;;9.10;7.05;;;6.30;79.10;;;;;;4999743;28;20096;-76
2023/12/05 11:24:30;;;;;;;9.45;6.47;;;6.30;79.10;;;;;;5026924;28;20079;-75
2023/12/05 11:27:43;;;;;;;8.35;6.63;;;6.30;79.10;;;;;;5030276;28;20044;-76
2023/12/05 11:30:42;;;;;;;10.30;7.07;;;6.30;79.10;;;;;;5005916;28;20114;-76
2023/12/05 11:33:27;;;;;;;9.90;6.82;;;6.30;79.10;;;;;;5021325;28;20030;-74
2023/12/05 11:36:24;;;;;;;9.48;7.20;;;6.20;79.10;;;;;;5021580;28;20029;-74
2023/12/05 11:38:50;;;;;;;8.98;6.53;;;6.30;79.10;;;;;;5024243;28;20052;-74
2023/12/05 11:41:18;;;;;;;8.32;6.18;;;6.30;79.00;;;;;;4997488;28;20079;-77
2023/12/05 11:44:13;;;;;;;9.38;7.32;;;6.30;79.10;;;;;;5022964;28;20112;-74
2023/12/05 11:46:47;;;;;;;10.65;7.65;;;6.30;79.20;;;;;;5013940;28;20367;-76
2023/12/05 11:49:46;;;;;;;9.45;7.80;;;6.30;79.10;;;;;;5028101;28;20037;-77
2023/12/05 11:52:13;;;;;;;8.40;7.18;;;6.30;79.10;;;;;;5014322;28;20466;-76
2023/12/05 11:54:42;;;;;;;10.00;7.68;;;6.30;79.10;;;;;;5013545;28;20291;-75
2023/12/05 11:57:16;;;;;;;10.55;7.78;;;6.30;79.10;;;;;;5002010;28;20037;-77
2023/12/05 11:59:45;;;;;;;10.35;7.70;;;6.30;79.20;;;;;;5027821;28;20034;-76
2023/12/05 12:02:34;;;;;;;10.52;7.30;;;6.30;79.10;;;;;;5028181;28;20505;-76
2023/12/05 12:05:10;;;;;;;8.88;6.95;;;6.30;79.20;;;;;;5041136;28;20136;-76
2023/12/05 12:08:03;;;;;;;8.75;7.13;;;6.30;79.10;;;;;;5010628;28;21082;-74
2023/12/05 12:10:30;;;;;;;9.40;7.30;;;6.30;79.10;;;;;;5041398;28;20044;-76
2023/12/05 12:12:55;;;;;;;8.98;7.03;;;6.30;79.10;;;;;;5011494;28;20490;-76
2023/12/05 12:15:21;;;;;;;9.10;7.20;;;6.30;79.10;;;;;;5008754;28;20041;-75
2023/12/05 12:17:48;;;;;;;9.13;7.18;;;6.40;79.20;;;;;;5043042;28;20119;-74
2023/12/05 12:20:18;;;;;;;8.68;6.65;;;6.40;79.10;;;;;;5029442;28;20029;-75
2023/12/05 12:22:48;;;;;;;8.65;6.65;;;6.40;79.20;;;;;;5013274;28;20084;-76
2023/12/05 12:25:14;;;;;;;9.35;6.82;;;6.30;79.10;;;;;;5008421;28;20022;-77
2023/12/05 12:27:41;;;;;;;8.63;6.43;;;6.30;79.10;;;;;;5029504;28;20034;-73
2023/12/05 12:30:15;;;;;;;8.15;6.35;;;6.40;79.10;;;;;;5023549;28;20026;-74
2023/12/05 12:32:57;;;;;;;9.80;7.43;;;6.40;79.10;;;;;;5020499;28;20022;-76
2023/12/05 12:35:24;;;;;;;9.27;6.65;;;6.40;79.10;;;;;;5009837;28;20463;-76
2023/12/05 12:37:54;;;;;;;9.57;7.28;;;6.40;79.00;;;;;;5026550;28;20383;-75
2023/12/05 12:40:20;;;;;;;9.43;6.97;;;6.40;79.10;;;;;;5033826;28;20026;-76
2023/12/05 12:42:54;;;;;;;9.40;7.03;;;6.40;79.10;;;;;;5027869;28;20064;-76
2023/12/05 12:45:22;;;;;;;9.95;7.65;;;6.40;79.10;;;;;;5031689;28;20033;-76
2023/12/05 12:47:48;;;;;;;9.52;7.18;;;6.40;79.10;;;;;;5023053;28;20489;-76
2023/12/05 12:50:14;;;;;;;9.85;7.40;;;6.40;79.00;;;;;;5035674;28;20033;-76
2023/12/05 12:52:43;;;;;;;9.98;7.35;;;6.40;79.00;;;;;;5030064;28;20029;-76
2023/12/05 12:55:10;;;;;;;10.38;7.75;;;6.40;79.00;;;;;;5022647;28;20554;-76
2023/12/05 12:57:35;;;;;;;11.63;8.77;;;6.40;79.00;;;;;;5028963;28;20169;-76
2023/12/05 13:00:05;;;;;;;11.20;7.75;;;6.40;79.00;;;;;;5015053;28;20125;-77